createdAt,value
2019-01-16T00:02:06.474Z,92.80
2019-01-16T00:04:51.431Z,93.10
2019-01-16T00:07:28.386Z,93.40
2019-01-16T00:10:05.403Z,93.50
2019-01-16T00:12:36.204Z,93.70
2019-01-16T00:15:07.420Z,94.30
2019-01-16T00:17:35.430Z,94.70
2019-01-16T00:20:06.187Z,94.80
2019-01-16T00:22:36.995Z,94.80
2019-01-16T00:25:05.785Z,95.00
2019-01-16T00:27:33.784Z,95.20
2019-01-16T00:30:04.831Z,95.30
2019-01-16T00:32:35.586Z,95.00
2019-01-16T00:35:20.786Z,95.10
2019-01-16T00:37:54.548Z,95.00
2019-01-16T00:40:31.699Z,95.00
2019-01-16T00:43:02.686Z,95.00
2019-01-16T00:45:33.432Z,95.20
2019-01-16T00:48:24.414Z,96.00
2019-01-16T00:50:50.819Z,96.60
2019-01-16T00:53:18.870Z,97.20
2019-01-16T00:55:52.684Z,97.80
2019-01-16T00:58:20.691Z,97.50
2019-01-16T01:00:51.878Z,97.30
2019-01-16T01:03:28.834Z,97.40
2019-01-16T01:06:11.791Z,97.70
2019-01-16T01:08:39.828Z,97.70
2019-01-16T01:11:13.867Z,97.90
2019-01-16T01:13:41.904Z,97.80
2019-01-16T01:16:12.831Z,97.60
2019-01-16T01:18:50.050Z,97.40
2019-01-16T01:21:23.852Z,97.10
2019-01-16T01:24:08.671Z,97.10
2019-01-16T01:26:48.707Z,97.10
2019-01-16T01:29:22.758Z,97.00
2019-01-16T01:32:03.290Z,96.90
2019-01-16T01:34:31.295Z,96.90
2019-01-16T01:37:05.259Z,96.90
2019-01-16T01:39:35.782Z,96.90
2019-01-16T01:42:20.292Z,97.40
2019-01-16T01:44:51.171Z,97.90
2019-01-16T01:47:24.949Z,98.50
2019-01-16T01:49:52.962Z,98.50
2019-01-16T01:52:20.986Z,97.90
2019-01-16T01:54:58.047Z,98.10
2019-01-16T01:57:35.112Z,97.90
2019-01-16T02:00:03.123Z,97.60
2019-01-16T02:02:31.110Z,97.60
2019-01-16T02:04:59.135Z,97.70
2019-01-16T02:07:33.126Z,97.80
2019-01-16T02:10:17.670Z,97.70
2019-01-16T02:12:48.415Z,97.70
2019-01-16T02:15:28.398Z,97.60
2019-01-16T02:17:56.382Z,97.70
2019-01-16T02:20:27.166Z,97.90
2019-01-16T02:23:11.780Z,97.80
2019-01-16T02:25:56.267Z,97.90
2019-01-16T02:28:42.321Z,97.50
2019-01-16T02:31:10.361Z,97.20
2019-01-16T02:33:54.835Z,97.10
2019-01-16T02:36:31.806Z,97.10
2019-01-16T02:39:08.791Z,97.10
2019-01-16T02:41:36.796Z,96.80
2019-01-16T02:44:10.542Z,96.70
2019-01-16T02:46:50.739Z,96.50
2019-01-16T02:49:27.677Z,96.50
2019-01-16T02:52:12.247Z,96.20
2019-01-16T02:54:46.031Z,96.30
2019-01-16T02:57:16.883Z,96.10
2019-01-16T02:59:44.892Z,96.00
2019-01-16T03:02:12.888Z,95.70
2019-01-16T03:04:43.623Z,95.20
2019-01-16T03:07:17.692Z,95.30
2019-01-16T03:09:54.548Z,95.30
2019-01-16T03:12:25.359Z,95.40
2019-01-16T03:14:55.901Z,95.30
2019-01-16T03:17:23.934Z,95.30
2019-01-16T03:19:58.366Z,95.30
2019-01-16T03:22:44.503Z,95.10
2019-01-16T03:25:21.163Z,95.30
2019-01-16T03:27:58.039Z,95.70
2019-01-16T03:30:26.052Z,95.60
2019-01-16T03:32:56.931Z,95.50
2019-01-16T03:35:40.249Z,95.40
2019-01-16T03:38:26.606Z,95.30
2019-01-16T03:41:00.851Z,95.20
2019-01-16T03:43:34.719Z,95.00
2019-01-16T03:46:05.724Z,94.80
2019-01-16T03:48:33.764Z,94.50
2019-01-16T03:51:18.568Z,94.70
2019-01-16T03:53:46.564Z,94.40
2019-01-16T03:56:31.247Z,94.60
2019-01-16T03:59:14.346Z,94.20
2019-01-16T04:01:51.420Z,94.00
2019-01-16T04:04:22.183Z,94.10
2019-01-16T04:07:08.447Z,94.00
2019-01-16T04:09:53.090Z,93.90
2019-01-16T04:12:37.671Z,93.60
2019-01-16T04:15:13.147Z,93.50
2019-01-16T04:17:53.129Z,93.60
2019-01-16T04:20:29.745Z,93.50
2019-01-16T04:22:57.749Z,93.40
2019-01-16T04:25:31.890Z,93.20
2019-01-16T04:28:16.442Z,93.30
2019-01-16T04:31:01.001Z,93.20
2019-01-16T04:33:34.871Z,93.30
2019-01-16T04:36:02.866Z,93.50
2019-01-16T04:38:42.899Z,93.20
2019-01-16T04:41:29.153Z,93.10
2019-01-16T04:44:12.410Z,93.00
2019-01-16T04:46:40.418Z,93.20
2019-01-16T04:49:20.472Z,93.20
2019-01-16T04:52:05.431Z,93.20
2019-01-16T04:54:45.386Z,93.30
2019-01-16T04:57:30.007Z,93.10
2019-01-16T05:00:00.788Z,93.10
2019-01-16T05:02:34.763Z,92.90
2019-01-16T05:05:17.851Z,92.80
2019-01-16T05:07:54.638Z,92.80
2019-01-16T05:10:22.635Z,92.90
2019-01-16T05:12:50.652Z,92.70
2019-01-16T05:15:18.672Z,92.50
2019-01-16T05:18:04.924Z,92.50
2019-01-16T05:20:36.017Z,92.50
2019-01-16T05:23:06.934Z,92.00
2019-01-16T05:25:34.923Z,92.00
2019-01-16T05:28:21.573Z,92.00
2019-01-16T05:30:52.504Z,91.80
2019-01-16T05:33:23.300Z,91.70
2019-01-16T05:35:54.079Z,91.70
2019-01-16T05:38:25.160Z,91.60
2019-01-16T05:40:53.188Z,91.50
2019-01-16T05:43:24.094Z,91.40
2019-01-16T05:46:01.338Z,91.10
2019-01-16T05:48:44.668Z,91.20
2019-01-16T05:51:19.147Z,91.20
2019-01-16T05:53:53.276Z,90.90
2019-01-16T05:56:36.543Z,90.40
2019-01-16T05:59:04.552Z,90.60
2019-01-16T06:01:32.559Z,90.50
2019-01-16T06:04:06.611Z,90.50
2019-01-16T06:06:52.873Z,90.20
2019-01-16T06:09:32.891Z,90.30
2019-01-16T06:12:19.330Z,90.10
2019-01-16T06:14:50.353Z,90.10
2019-01-16T06:17:18.354Z,89.60
2019-01-16T06:19:53.988Z,89.50
2019-01-16T06:22:36.105Z,89.30
2019-01-16T06:25:12.454Z,89.20
2019-01-16T06:27:58.499Z,88.70
2019-01-16T06:30:35.718Z,88.50
2019-01-16T06:33:12.774Z,88.10
2019-01-16T06:35:40.791Z,88.70
2019-01-16T06:38:08.899Z,87.90
2019-01-16T06:40:36.905Z,88.20
2019-01-16T06:43:20.207Z,87.90
2019-01-16T06:46:03.134Z,88.00
2019-01-16T06:48:34.186Z,87.50
2019-01-16T06:51:05.327Z,87.70
2019-01-16T06:53:48.629Z,88.40
2019-01-16T06:56:19.508Z,86.90
2019-01-16T06:58:53.650Z,87.10
2019-01-16T07:01:39.687Z,87.70
2019-01-16T07:04:19.518Z,86.90
2019-01-16T07:06:47.532Z,87.10
2019-01-16T07:09:32.234Z,86.70
2019-01-16T07:12:00.234Z,86.90
2019-01-16T07:14:37.459Z,87.20
2019-01-16T07:17:05.936Z,87.10
2019-01-16T07:19:46.163Z,86.70
2019-01-16T07:22:20.036Z,86.80
2019-01-16T07:24:53.845Z,87.10
2019-01-16T07:27:27.939Z,86.70
2019-01-16T07:30:01.983Z,86.70
2019-01-16T07:32:47.168Z,86.40
2019-01-16T07:35:24.178Z,86.30
2019-01-16T07:37:58.365Z,86.50
2019-01-16T07:40:26.397Z,86.00
2019-01-16T07:43:12.588Z,86.20
2019-01-16T07:45:57.078Z,85.70
2019-01-16T07:48:41.662Z,85.90
2019-01-16T07:51:15.616Z,85.60
2019-01-16T07:53:49.731Z,85.70
2019-01-16T07:56:33.021Z,85.50
2019-01-16T07:59:04.286Z,85.70
2019-01-16T08:01:49.021Z,85.70
2019-01-16T08:04:33.668Z,85.40
2019-01-16T08:07:01.667Z,85.90
2019-01-16T08:09:41.839Z,85.80
2019-01-16T08:12:28.033Z,85.30
2019-01-16T08:15:12.651Z,85.30
2019-01-16T08:17:59.105Z,85.30
2019-01-16T08:20:29.866Z,85.50
2019-01-16T08:22:57.892Z,85.70
2019-01-16T08:25:25.966Z,85.40
2019-01-16T08:27:56.831Z,85.10
2019-01-16T08:30:41.666Z,84.80
2019-01-16T08:33:09.703Z,85.30
2019-01-16T08:35:38.057Z,85.00
2019-01-16T08:38:24.257Z,85.60
2019-01-16T08:40:55.003Z,85.00
2019-01-16T08:43:23.038Z,84.90
2019-01-16T08:45:51.057Z,84.90
2019-01-16T08:48:21.818Z,84.60
2019-01-16T08:51:05.179Z,84.40
2019-01-16T08:53:33.185Z,84.40
2019-01-16T08:56:04.101Z,84.60
2019-01-16T08:58:48.673Z,84.40
2019-01-16T09:01:33.372Z,84.60
2019-01-16T09:04:01.507Z,84.20
2019-01-16T09:06:35.611Z,84.90
2019-01-16T09:09:06.515Z,83.80
2019-01-16T09:11:51.372Z,83.80
2019-01-16T09:14:22.113Z,84.00
2019-01-16T09:16:52.918Z,83.60
2019-01-16T09:19:26.976Z,83.80
2019-01-16T09:22:10.238Z,83.60
2019-01-16T09:24:54.507Z,83.20
2019-01-16T09:27:25.547Z,83.20
2019-01-16T09:30:10.464Z,82.40
2019-01-16T09:32:41.399Z,82.60
2019-01-16T09:35:09.433Z,82.90
2019-01-16T09:37:37.426Z,82.50
2019-01-16T09:40:14.990Z,81.70
2019-01-16T09:42:54.852Z,81.30
2019-01-16T09:45:25.892Z,81.00
2019-01-16T09:47:53.911Z,81.70
2019-01-16T09:50:34.031Z,81.40
2019-01-16T09:53:11.299Z,81.20
2019-01-16T09:55:56.199Z,81.20
2019-01-16T09:58:30.067Z,81.00
2019-01-16T10:01:14.651Z,80.70
2019-01-16T10:03:48.627Z,81.20
2019-01-16T10:06:16.658Z,81.60
2019-01-16T10:08:44.654Z,82.30
2019-01-16T10:11:12.679Z,82.20
2019-01-16T10:13:55.710Z,82.60
2019-01-16T10:16:40.249Z,82.00
2019-01-16T10:19:17.212Z,81.60
2019-01-16T10:21:57.173Z,82.00
2019-01-16T10:24:25.216Z,82.20
2019-01-16T10:26:56.067Z,82.10
2019-01-16T10:29:30.129Z,82.40
2019-01-16T10:32:10.298Z,81.30
2019-01-16T10:34:44.376Z,80.90
2019-01-16T10:37:21.475Z,80.90
2019-01-16T10:39:52.259Z,81.20
2019-01-16T10:42:20.282Z,81.10
2019-01-16T10:44:54.136Z,81.40
2019-01-16T10:47:37.223Z,82.00
2019-01-16T10:50:20.754Z,82.10
2019-01-16T10:52:48.779Z,82.80
2019-01-16T10:55:34.938Z,82.40
2019-01-16T10:58:08.744Z,82.00
2019-01-16T11:00:53.307Z,81.90
2019-01-16T11:03:33.397Z,82.10
2019-01-16T11:06:04.406Z,82.00
2019-01-16T11:08:48.967Z,82.20
2019-01-16T11:11:17.168Z,82.30
2019-01-16T11:13:54.199Z,83.10
2019-01-16T11:16:25.041Z,82.80
2019-01-16T11:18:59.131Z,83.20
2019-01-16T11:21:36.066Z,83.00
2019-01-16T11:24:20.631Z,82.20
2019-01-16T11:26:54.670Z,82.80
2019-01-16T11:29:39.467Z,82.80
2019-01-16T11:32:16.440Z,82.60
2019-01-16T11:34:59.466Z,83.20
2019-01-16T11:37:36.464Z,83.20
2019-01-16T11:40:08.276Z,82.90
2019-01-16T11:42:45.336Z,83.20
2019-01-16T11:45:16.373Z,83.60
2019-01-16T11:48:01.200Z,83.00
2019-01-16T11:50:29.267Z,83.90
2019-01-16T11:53:12.346Z,83.70
2019-01-16T11:55:52.894Z,84.10
2019-01-16T11:58:20.892Z,83.60
2019-01-16T12:00:51.399Z,83.40
2019-01-16T12:03:37.466Z,83.20
2019-01-16T12:06:11.410Z,83.40
2019-01-16T12:08:42.156Z,83.10
2019-01-16T12:11:13.248Z,83.40
2019-01-16T12:13:58.267Z,83.00
2019-01-16T12:16:29.055Z,83.20
2019-01-16T12:19:08.895Z,82.80
2019-01-16T12:21:39.880Z,83.20
2019-01-16T12:24:07.895Z,83.40
2019-01-16T12:26:35.925Z,83.90
2019-01-16T12:29:07.113Z,83.40
2019-01-16T12:31:41.194Z,83.20
2019-01-16T12:34:25.995Z,83.50
2019-01-16T12:37:06.398Z,84.20
2019-01-16T12:39:52.448Z,83.50
2019-01-16T12:42:23.441Z,84.10
2019-01-16T12:44:51.534Z,84.30
2019-01-16T12:47:25.619Z,84.10
2019-01-16T12:49:53.653Z,84.20
2019-01-16T12:52:24.159Z,84.00
2019-01-16T12:54:58.223Z,83.40
2019-01-16T12:57:42.721Z,83.20
2019-01-16T13:00:23.242Z,84.00
2019-01-16T13:03:00.182Z,83.40
2019-01-16T13:05:30.983Z,83.00
2019-01-16T13:07:59.049Z,83.00
2019-01-16T13:10:36.307Z,83.00
2019-01-16T13:13:22.787Z,82.20
2019-01-16T13:15:56.876Z,82.60
2019-01-16T13:18:24.891Z,82.50
2019-01-16T13:20:55.800Z,83.00
2019-01-16T13:23:33.016Z,82.80
2019-01-16T13:26:17.509Z,82.50
2019-01-16T13:29:03.624Z,83.20
2019-01-16T13:31:31.637Z,82.90
2019-01-16T13:33:59.674Z,83.20
2019-01-16T13:36:27.701Z,83.10
2019-01-16T13:38:58.731Z,82.80
2019-01-16T13:41:45.210Z,83.00
2019-01-16T13:44:16.240Z,82.80
2019-01-16T13:46:59.219Z,82.40
2019-01-16T13:49:36.443Z,82.10
2019-01-16T13:52:04.545Z,82.60
2019-01-16T13:54:35.352Z,82.60
2019-01-16T13:57:06.635Z,83.00
2019-01-16T13:59:46.915Z,82.40
2019-01-16T14:02:18.047Z,82.30
2019-01-16T14:05:01.131Z,82.60
2019-01-16T14:07:41.292Z,82.80
2019-01-16T14:10:27.038Z,83.10
2019-01-16T14:12:55.062Z,83.00
2019-01-16T14:15:39.578Z,82.30
2019-01-16T14:18:10.355Z,82.20
2019-01-16T14:20:55.179Z,82.10
2019-01-16T14:23:23.288Z,81.70
2019-01-16T14:26:07.935Z,81.50
2019-01-16T14:28:35.975Z,82.40
2019-01-16T14:31:20.805Z,81.70
2019-01-16T14:33:57.747Z,82.10
2019-01-16T14:36:42.340Z,82.70
2019-01-16T14:39:19.292Z,83.20
2019-01-16T14:42:02.602Z,83.30
2019-01-16T14:44:47.155Z,82.70
2019-01-16T14:47:27.424Z,83.20
2019-01-16T14:49:55.546Z,82.80
2019-01-16T14:52:26.308Z,82.40
2019-01-16T14:55:06.622Z,82.40
2019-01-16T14:57:43.876Z,82.60
2019-01-16T15:00:30.193Z,82.00
2019-01-16T15:02:58.228Z,81.80
2019-01-16T15:05:29.036Z,82.20
2019-01-16T15:08:00.085Z,82.30
2019-01-16T15:10:28.312Z,82.40
2019-01-16T15:13:05.119Z,82.30
2019-01-16T15:15:51.470Z,82.30
2019-01-16T15:18:22.623Z,82.10
2019-01-16T15:21:00.187Z,82.20
2019-01-16T15:23:37.535Z,82.20
2019-01-16T15:26:08.359Z,82.20
2019-01-16T15:28:45.526Z,82.00
2019-01-16T15:31:22.810Z,82.50
2019-01-16T15:34:08.527Z,82.30
2019-01-16T15:36:36.636Z,83.10
2019-01-16T15:39:14.374Z,82.70
2019-01-16T15:41:42.391Z,83.10
2019-01-16T15:44:28.518Z,83.50
2019-01-16T15:47:05.805Z,83.90
2019-01-16T15:49:50.747Z,84.10
2019-01-16T15:52:21.506Z,84.40
2019-01-16T15:55:06.387Z,84.70
2019-01-16T15:57:34.419Z,84.30
2019-01-16T16:00:08.440Z,84.80
2019-01-16T16:02:46.827Z,84.30
2019-01-16T16:05:21.124Z,84.10
2019-01-16T16:07:49.147Z,84.40
2019-01-16T16:10:33.955Z,84.50
2019-01-16T16:13:16.964Z,84.90
2019-01-16T16:15:44.962Z,85.40
2019-01-16T16:18:15.901Z,86.20
2019-01-16T16:20:55.966Z,85.50
2019-01-16T16:23:24.003Z,85.60
2019-01-16T16:26:10.431Z,85.80
2019-01-16T16:28:41.813Z,85.80
2019-01-16T16:31:15.812Z,85.90
2019-01-16T16:33:49.894Z,85.90
2019-01-16T16:36:34.623Z,85.80
2019-01-16T16:39:02.651Z,85.70
2019-01-16T16:41:30.798Z,85.70
2019-01-16T16:44:14.116Z,86.70
2019-01-16T16:46:58.609Z,86.20
2019-01-16T16:49:26.618Z,86.40
2019-01-16T16:52:03.732Z,86.60
2019-01-16T16:54:40.852Z,86.40
2019-01-16T16:57:08.896Z,86.50
2019-01-16T16:59:52.228Z,86.50
2019-01-16T17:02:23.083Z,86.50
2019-01-16T17:05:07.922Z,86.70
2019-01-16T17:07:38.663Z,86.90
2019-01-16T17:10:15.050Z,86.80
2019-01-16T17:12:43.077Z,87.30
2019-01-16T17:15:12.429Z,87.30
2019-01-16T17:17:49.499Z,86.90
2019-01-16T17:20:20.264Z,86.90
2019-01-16T17:23:00.275Z,87.30
2019-01-16T17:25:37.380Z,87.50
2019-01-16T17:28:17.449Z,87.70
2019-01-16T17:30:45.464Z,87.90
2019-01-16T17:33:19.655Z,87.90
2019-01-16T17:36:03.072Z,88.10
2019-01-16T17:38:46.151Z,88.40
2019-01-16T17:41:23.370Z,88.60
2019-01-16T17:44:08.391Z,88.80
2019-01-16T17:46:52.971Z,88.80
2019-01-16T17:49:23.909Z,89.00
2019-01-16T17:52:00.845Z,89.00
2019-01-16T17:54:45.599Z,89.20
2019-01-16T17:57:19.429Z,89.00
2019-01-16T18:00:04.309Z,88.80
2019-01-16T18:02:41.375Z,88.90
2019-01-16T18:05:09.488Z,89.10
2019-01-16T18:07:37.536Z,89.40
2019-01-16T18:10:09.401Z,89.60
2019-01-16T18:12:40.418Z,89.60
2019-01-16T18:15:24.803Z,90.00
2019-01-16T18:18:09.449Z,90.10
2019-01-16T18:20:40.355Z,90.10
2019-01-16T18:23:25.123Z,90.20
2019-01-16T18:25:55.880Z,90.30
2019-01-16T18:28:32.908Z,90.30
2019-01-16T18:31:00.954Z,90.30
2019-01-16T18:33:32.055Z,90.40
2019-01-16T18:36:08.982Z,90.50
2019-01-16T18:38:53.619Z,90.50
2019-01-16T18:41:21.647Z,90.50
2019-01-16T18:43:52.676Z,90.50
2019-01-16T18:46:44.116Z,90.30
2019-01-16T18:49:20.610Z,90.10
2019-01-16T18:51:59.058Z,90.00
2019-01-16T18:54:34.772Z,89.80
2019-01-16T18:57:13.741Z,89.50
2019-01-16T18:59:51.396Z,89.20
2019-01-16T19:02:29.837Z,88.90
2019-01-16T19:05:00.641Z,88.70
2019-01-16T19:07:46.858Z,88.90
2019-01-16T19:10:17.613Z,88.70
2019-01-16T19:13:03.894Z,88.20
2019-01-16T19:15:37.934Z,87.10
2019-01-16T19:18:12.044Z,86.40
2019-01-16T19:20:58.654Z,86.10
2019-01-16T19:23:26.742Z,85.80
2019-01-16T19:26:11.119Z,85.50
2019-01-16T19:28:50.011Z,85.40
2019-01-16T19:31:27.304Z,85.00
2019-01-16T19:33:55.347Z,84.70
2019-01-16T19:36:23.583Z,84.80
2019-01-16T19:38:51.629Z,85.00
2019-01-16T19:41:26.138Z,84.30
2019-01-16T19:44:03.666Z,83.60
2019-01-16T19:46:35.132Z,83.50
2019-01-16T19:49:19.996Z,83.60
2019-01-16T19:51:53.849Z,83.70
2019-01-16T19:54:40.327Z,83.40
2019-01-16T19:57:14.577Z,83.90
2019-01-16T19:59:42.597Z,83.90
2019-01-16T20:02:16.922Z,84.00
2019-01-16T20:04:57.266Z,83.70
2019-01-16T20:07:43.677Z,84.10
2019-01-16T20:10:18.932Z,84.70
2019-01-16T20:13:02.290Z,84.50
2019-01-16T20:15:33.344Z,84.70
2019-01-16T20:18:01.459Z,84.70
2019-01-16T20:20:32.251Z,84.50
2019-01-16T20:23:11.146Z,84.50
2019-01-16T20:25:56.141Z,84.00
2019-01-16T20:28:26.943Z,84.50
2019-01-16T20:31:03.930Z,84.60
2019-01-16T20:33:31.961Z,84.10
2019-01-16T20:36:03.232Z,84.20
2019-01-16T20:38:47.798Z,84.10
2019-01-16T20:41:21.605Z,84.40
2019-01-16T20:43:55.572Z,84.30
2019-01-16T20:46:23.686Z,84.30
2019-01-16T20:49:03.699Z,84.10
2019-01-16T20:51:44.115Z,84.10
2019-01-16T20:54:14.983Z,84.10
2019-01-16T20:56:58.040Z,84.40
2019-01-16T20:59:38.096Z,84.00
2019-01-16T21:02:06.629Z,84.00
2019-01-16T21:04:47.612Z,83.70
2019-01-16T21:07:15.718Z,83.90
2019-01-16T21:09:43.735Z,84.00
2019-01-16T21:12:24.025Z,83.90
2019-01-16T21:15:10.141Z,83.80
2019-01-16T21:17:49.985Z,84.00
2019-01-16T21:20:20.872Z,84.10
2019-01-16T21:23:06.930Z,84.30
2019-01-16T21:25:40.980Z,84.30
2019-01-16T21:28:20.922Z,84.00
2019-01-16T21:30:58.063Z,84.10
2019-01-16T21:33:29.076Z,84.20
2019-01-16T21:36:00.090Z,84.10
2019-01-16T21:38:28.122Z,83.90
2019-01-16T21:41:12.704Z,83.90
2019-01-16T21:43:57.392Z,83.90
2019-01-16T21:46:25.423Z,84.00
2019-01-16T21:49:02.744Z,84.10
2019-01-16T21:51:33.938Z,84.20
2019-01-16T21:54:01.971Z,84.20
2019-01-16T21:56:46.626Z,84.30
2019-01-16T21:59:14.725Z,84.00
2019-01-16T22:01:51.881Z,84.30
2019-01-16T22:04:28.759Z,84.50
2019-01-16T22:07:14.761Z,84.20
2019-01-16T22:09:59.319Z,84.10
2019-01-16T22:12:45.444Z,84.40
2019-01-16T22:15:22.923Z,85.00
2019-01-16T22:17:51.056Z,84.50
2019-01-16T22:20:21.811Z,84.70
2019-01-16T22:23:04.859Z,84.30
2019-01-16T22:25:35.988Z,84.50
2019-01-16T22:28:06.769Z,84.00
2019-01-16T22:30:40.773Z,84.30
2019-01-16T22:33:20.810Z,84.10
2019-01-16T22:35:54.701Z,84.10
2019-01-16T22:38:22.765Z,84.40
2019-01-16T22:40:56.546Z,84.80
2019-01-16T22:43:41.058Z,84.50
2019-01-16T22:46:27.096Z,84.30
2019-01-16T22:49:07.126Z,84.40
2019-01-16T22:51:38.260Z,84.70
2019-01-16T22:54:12.071Z,85.40
2019-01-16T22:56:56.555Z,85.80
2019-01-16T22:59:24.602Z,85.60
2019-01-16T23:02:01.461Z,86.00
2019-01-16T23:04:38.292Z,86.40
2019-01-16T23:07:22.835Z,86.50
2019-01-16T23:09:53.599Z,86.80
2019-01-16T23:12:33.694Z,86.90
2019-01-16T23:15:07.792Z,86.80
2019-01-16T23:17:35.803Z,86.80
2019-01-16T23:20:20.533Z,86.90
2019-01-16T23:22:51.283Z,86.90
2019-01-16T23:25:35.773Z,86.90
2019-01-16T23:28:03.831Z,87.00
2019-01-16T23:30:37.825Z,87.00
2019-01-16T23:33:05.872Z,87.40
2019-01-16T23:35:51.982Z,87.30
2019-01-16T23:38:36.470Z,87.40
2019-01-16T23:41:07.275Z,88.40
2019-01-16T23:43:47.472Z,88.60
2019-01-16T23:46:18.260Z,89.30
2019-01-16T23:48:58.379Z,89.10
2019-01-16T23:51:42.987Z,89.50
2019-01-16T23:54:19.949Z,90.10
2019-01-16T23:56:48.012Z,91.20
2019-01-16T23:59:28.278Z,90.70
